Kendall Tamiami Executive Airport
KTMB : now visible

Airfield :











YOU CAN JOIN US ON...

 
LOGIN :

Register | Disclaimer

   EN    FR    IT 

 









Legend :    VFR   Marginal VFR   IFR   Intensive IFR   Very Intensive IFR
Visi :
Ceiling :
>= 8 km
>= 3000ft
5 to 8 km
1000 to 3000 ft
1500m to 5 km
500 to 1000 ft
800 to 1500m
200 to 500 ft
< 800m
< 200 ft
Symbols :   Thunderstorms  Fog  Heavy snow  Heavy precipitations  Wind > 20 kt






- Airport Elevation : 8 ft


KTMB - Kendall Tamiami Executive

CURRENT METAR :
  • 180553Z AUTO 00000KT 10SM FEW019 21/20 A3011 RMK AO2 SLP196 T02060200 10256 20206 58001

EXPIRED METARs :
  • 180453Z AUTO 07003KT 10SM CLR 22/21 A3012 RMK AO2 SLP199 T02170206 403000178
  • 180353Z COR 09003KT 10SM CLR 22/21 A3012 RMK AO2 SLP200 T02220206 LAST

TAF KTMB
Valid from the 18 at 06:00 until the 19 at 06:00 UTC


180538Z 1806/1906 VRB03KT P6SM FEW025 SCT250
FM181500 12011KT P6SM SCT025 SCT050
FM190100 12006KT P6SM FEW025 SCT250



MET'MAP, your aeronautical weather chart ! - Copyright ORBIFLY December 2007 - Disclaimer

ORBIFLY MET'MAP TEAM :

Programming & Development : Alexandra Zaïnal
Concept & original design : Baudouin d'Aumeries
Assistance for programming : Marc-Olivier Méhu
Technical & hardware support : Manuel Goepfert

Contact : metmap@orbifly.com




SOURCES & CREDITS :

   NOAA       Earth
Advisory